Time;durP1;ratioP1;P1;durP2;ratioP2;P2;SDS_P1;SDS_P2;PMS_P1;PMS_P2;Temp;Humidity;BMP_temperature;BMP_pressure;BME280_temperature;BME280_humidity;BME280_pressure;Samples;Min_cycle;Max_cycle;Signal;HPM_P1;HPM_P2
2023/09/03 00:17:34;;;;;;;25.50;21.30;;;12.00;99.90;;;;;;6045420;23;20171;-82
2023/09/03 00:58:14;;;;;;;21.47;19.23;;;12.30;99.90;;;;;;6064537;23;20213;-83
2023/09/03 01:53:35;;;;;;;24.10;20.00;;;11.70;99.90;;;;;;5828007;24;20338;-83
2023/09/03 02:14:15;;;;;;;25.93;20.83;;;11.60;99.90;;;;;;5818203;24;20195;-84
2023/09/03 02:54:44;;;;;;;27.13;21.50;;;11.50;99.90;;;;;;5718826;24;20232;-83
2023/09/03 03:14:59;;;;;;;29.57;22.17;;;11.30;99.90;;;;;;5802729;24;20283;-84
2023/09/03 03:40:35;;;;;;;24.87;22.13;;;11.20;99.90;;;;;;5974275;23;20168;-87
2023/09/03 04:05:29;;;;;;;25.63;21.60;;;11.30;99.90;;;;;;5883757;23;20204;-82
2023/09/03 04:56:15;;;;;;;22.70;19.80;;;12.60;99.90;;;;;;5724090;24;20633;-84
2023/09/03 05:21:57;;;;;;;21.23;18.43;;;13.50;99.90;;;;;;5823235;24;20233;-85
2023/09/03 05:52:25;;;;;;;25.93;23.13;;;13.70;99.90;;;;;;5887493;23;20737;-84
2023/09/03 07:08:22;;;;;;;9.07;7.87;;;18.50;94.60;;;;;;5887371;23;20197;-86
2023/09/03 07:23:05;;;;;;;8.00;6.10;;;19.30;90.40;;;;;;6248282;22;20206;-81
2023/09/03 07:49:04;;;;;;;7.60;5.20;;;19.20;87.80;;;;;;6033668;23;20619;-85
2023/09/03 08:19:12;;;;;;;5.40;4.90;;;21.30;81.70;;;;;;6101446;23;20258;-85
2023/09/03 08:49:13;;;;;;;8.88;5.70;;;20.40;84.30;;;;;;5956658;23;20450;-83
2023/09/03 09:10:03;;;;;;;6.00;5.40;;;20.80;85.40;;;;;;6011220;23;20582;-84
2023/09/03 09:30:29;;;;;;;5.55;4.53;;;21.30;83.70;;;;;;6095978;23;20245;-85
2023/09/03 09:50:48;;;;;;;6.10;3.88;;;22.20;78.60;;;;;;5905147;23;20603;-89
2023/09/03 09:55:09;;;;;;;3.67;3.15;;;22.20;75.70;;;;;;5823601;23;20520;-85
2023/09/03 10:16:07;;;;;;;3.70;3.30;;;21.10;84.10;;;;;;6039398;23;20176;-83
2023/09/03 10:36:20;;;;;;;4.78;3.67;;;20.20;88.90;;;;;;6102745;23;20710;-85
2023/09/03 11:21:53;;;;;;;2.95;2.75;;;21.10;81.80;;;;;;6051350;23;20681;-82
2023/09/03 11:47:25;;;;;;;2.30;2.10;;;21.50;73.90;;;;;;6040471;23;20217;-87
2023/09/03 12:07:42;;;;;;;2.33;2.10;;;22.00;77.00;;;;;;6031639;23;20597;-86
2023/09/03 12:32:43;;;;;;;2.70;2.42;;;21.90;74.40;;;;;;5722536;24;20263;-84
2023/09/03 13:03:29;;;;;;;2.47;2.25;;;22.40;70.40;;;;;;5819804;24;20195;-84
2023/09/03 13:23:26;;;;;;;3.08;2.35;;;23.50;62.60;;;;;;5708636;24;20819;-87
2023/09/03 13:49:03;;;;;;;1.80;1.70;;;23.40;61.00;;;;;;5870672;23;20194;-86
2023/09/03 15:40:38;;;;;;;3.88;2.30;;;22.40;53.80;;;;;;5694242;24;20265;-89
2023/09/03 16:10:30;;;;;;;2.75;2.20;;;22.00;53.80;;;;;;6026318;23;20199;-83
2023/09/03 16:31:01;;;;;;;3.22;2.92;;;21.50;53.00;;;;;;5822380;24;20550;-86
2023/09/03 17:21:57;;;;;;;3.30;2.30;;;19.60;51.80;;;;;;5816508;24;20176;-84
2023/09/03 18:02:38;;;;;;;2.33;2.13;;;18.90;54.20;;;;;;6188545;22;20223;-87
2023/09/03 18:27:58;;;;;;;3.50;3.00;;;17.30;72.30;;;;;;6029024;23;20195;-89
2023/09/03 18:48:16;;;;;;;4.03;2.90;;;17.60;75.20;;;;;;5942603;23;20277;-86
2023/09/03 19:18:40;;;;;;;2.60;2.40;;;18.20;76.80;;;;;;5992271;23;20374;-85
2023/09/03 19:43:46;;;;;;;3.10;2.80;;;18.00;74.20;;;;;;5693931;24;21099;-88
2023/09/03 20:04:02;;;;;;;4.20;3.00;;;17.40;83.00;;;;;;5697453;24;20595;-86
2023/09/03 20:44:50;;;;;;;3.97;3.00;;;17.40;83.80;;;;;;5745078;24;20820;-86
2023/09/03 21:14:45;;;;;;;4.80;3.70;;;18.00;85.80;;;;;;5761674;24;20575;-86
2023/09/03 21:50:34;;;;;;;5.63;4.10;;;18.00;90.30;;;;;;5791223;24;20240;-85
2023/09/03 22:21:01;;;;;;;4.83;3.87;;;17.60;93.30;;;;;;5958187;23;20243;-84
2023/09/03 22:56:44;;;;;;;5.97;4.77;;;17.20;97.90;;;;;;6123762;23;20176;-81
2023/09/03 23:17:10;;;;;;;5.60;4.60;;;17.30;98.60;;;;;;6076669;23;20233;-84
2023/09/03 23:21:30;;;;;;;5.90;4.57;;;17.30;97.80;;;;;;5972268;23;20634;-86
2023/09/03 23:47:19;;;;;;;7.17;5.10;;;16.80;99.90;;;;;;5854337;23;20658;-85
